地図

経路データ

SID SEASON NUMBER BASIN SUBBASIN NAME ISO_TIME NATURE LAT LON WMO_WIND WMO_PRES WMO_AGENCY TRACK_TYPE DIST2LAND LANDFALL IFLAG USA_AGENCY USA_ATCF_ID USA_LAT USA_LON USA_RECORD USA_STATUS USA_WIND USA_PRES USA_SSHS USA_R34_NE USA_R34_SE USA_R34_SW USA_R34_NW USA_R50_NE USA_R50_SE USA_R50_SW USA_R50_NW USA_R64_NE USA_R64_SE USA_R64_SW USA_R64_NW USA_POCI USA_ROCI USA_RMW USA_EYE TOKYO_LAT TOKYO_LON TOKYO_GRADE TOKYO_WIND TOKYO_PRES TOKYO_R50_DIR TOKYO_R50_LONG TOKYO_R50_SHORT TOKYO_R30_DIR TOKYO_R30_LONG TOKYO_R30_SHORT TOKYO_LAND CMA_LAT CMA_LON CMA_CAT CMA_WIND CMA_PRES HKO_LAT HKO_LON HKO_CAT HKO_WIND HKO_PRES NEWDELHI_LAT NEWDELHI_LON NEWDELHI_GRADE NEWDELHI_WIND NEWDELHI_PRES NEWDELHI_CI NEWDELHI_DP NEWDELHI_POCI REUNION_LAT REUNION_LON REUNION_TYPE REUNION_WIND REUNION_PRES REUNION_TNUM REUNION_CI REUNION_RMW REUNION_R34_NE REUNION_R34_SE REUNION_R34_SW REUNION_R34_NW REUNION_R50_NE REUNION_R50_SE REUNION_R50_SW REUNION_R50_NW REUNION_R64_NE REUNION_R64_SE REUNION_R64_SW REUNION_R64_NW BOM_LAT BOM_LON BOM_TYPE BOM_WIND BOM_PRES BOM_TNUM BOM_CI BOM_RMW BOM_R34_NE BOM_R34_SE BOM_R34_SW BOM_R34_NW BOM_R50_NE BOM_R50_SE BOM_R50_SW BOM_R50_NW BOM_R64_NE BOM_R64_SE BOM_R64_SW BOM_R64_NW BOM_ROCI BOM_POCI BOM_EYE BOM_POS_METHOD BOM_PRES_METHOD NADI_LAT NADI_LON NADI_CAT NADI_WIND NADI_PRES WELLINGTON_LAT WELLINGTON_LON WELLINGTON_WIND WELLINGTON_PRES DS824_LAT DS824_LON DS824_STAGE DS824_WIND DS824_PRES TD9636_LAT TD9636_LON TD9636_STAGE TD9636_WIND TD9636_PRES TD9635_LAT TD9635_LON TD9635_WIND TD9635_PRES TD9635_ROCI NEUMANN_LAT NEUMANN_LON NEUMANN_CLASS NEUMANN_WIND NEUMANN_PRES MLC_LAT MLC_LON MLC_CLASS MLC_WIND MLC_PRES USA_GUST BOM_GUST BOM_GUST_PER REUNION_GUST REUNION_GUST_PER USA_SEAHGT USA_SEARAD_NE USA_SEARAD_SE USA_SEARAD_SW USA_SEARAD_NW STORM_SPEED STORM_DIR
1940207N17150 1940 38 WP MM NOT_NAMED 1940-07-24 12:00:00 NR 16.8000 150.000 main 2136 2136 __________O___ -1 16.8000 150.000 4 7 3
1940207N17150 1940 38 WP MM NOT_NAMED 1940-07-24 15:00:00 NR 17.1490 150.018 main 2169 2169 __________P___ -1 17.1490 150.018 4 7 357
1940207N17150 1940 38 WP MM NOT_NAMED 1940-07-24 18:00:00 NR 17.4785 149.969 main 2185 2146 __________P___ -1 17.4785 149.969 4 7 341
1940207N17150 1940 38 WP MM NOT_NAMED 1940-07-24 21:00:00 NR 17.7688 149.786 main 2146 2107 __________P___ -1 17.7688 149.786 4 8 314
1940207N17150 1940 38 WP MM NOT_NAMED 1940-07-25 00:00:00 NR 18.0000 149.400 main 2107 2061 __________O___ -1 18.0000 149.400 4 10 292
1940207N17150 1940 38 WP MM NOT_NAMED 1940-07-25 03:00:00 NR 18.1571 148.768 main 2061 2029 __________P___ -1 18.1571 148.768 4 14 280
1940207N17150 1940 38 WP MM NOT_NAMED 1940-07-25 06:00:00 NR 18.2490 147.940 main 2025 1981 __________P___ -1 18.2490 147.940 4 17 275
1940207N17150 1940 38 WP MM NOT_NAMED 1940-07-25 09:00:00 NR 18.2911 146.992 main 1981 1952 __________P___ -1 18.2911 146.992 4 18 272
1940207N17150 1940 38 WP MM NOT_NAMED 1940-07-25 12:00:00 NR 18.3000 146.000 main 1949 1923 __________O___ -1 18.3000 146.000 4 19 270
1940207N17150 1940 38 WP MM NOT_NAMED 1940-07-25 15:00:00 NR 18.2963 145.033 main 1918 1877 __________P___ -1 18.2963 145.033 4 19 269
1940207N17150 1940 38 WP MM NOT_NAMED 1940-07-25 18:00:00 NR 18.2662 144.046 main 1873 1846 __________P___ -1 18.2662 144.046 4 19 268
1940207N17150 1940 38 WP MM NOT_NAMED 1940-07-25 21:00:00 NR 18.2277 143.086 main 1846 1813 __________P___ -1 18.2277 143.086 4 18 268
1940207N17150 1940 38 WP MM NOT_NAMED 1940-07-26 00:00:00 NR 18.2000 142.200 main 1813 1790 __________O___ -1 18.2000 142.200 4 16 269
1940207N17150 1940 38 WP MM NOT_NAMED 1940-07-26 03:00:00 NR 18.1881 141.442 main 1784 1751 __________P___ -1 18.1881 141.442 4 14 270
1940207N17150 1940 38 WP MM NOT_NAMED 1940-07-26 06:00:00 NR 18.1947 140.760 main 1751 1713 __________P___ -1 18.1947 140.760 4 13 272
1940207N17150 1940 38 WP MM NOT_NAMED 1940-07-26 09:00:00 NR 18.2291 140.123 main 1704 1649 __________P___ -1 18.2291 140.123 4 12 275
1940207N17150 1940 38 WP MM NOT_NAMED 1940-07-26 12:00:00 NR 18.3000 139.500 main 1649 1595 __________O___ -1 18.3000 139.500 4 13 278
1940207N17150 1940 38 WP MM NOT_NAMED 1940-07-26 15:00:00 NR 18.4139 138.815 main 1585 1533 __________P___ -1 18.4139 138.815 4 13 281
1940207N17150 1940 38 WP MM NOT_NAMED 1940-07-26 18:00:00 NR 18.5624 138.141 main 1528 1477 __________P___ -1 18.5624 138.141 4 13 284
1940207N17150 1940 38 WP MM NOT_NAMED 1940-07-26 21:00:00 NR 18.7297 137.496 main 1477 1432 __________P___ -1 18.7297 137.496 4 12 286
1940207N17150 1940 38 WP MM NOT_NAMED 1940-07-27 00:00:00 NR 18.9000 136.900 main 1432 1393 __________O___ -1 18.9000 136.900 4 11 287
1940207N17150 1940 38 WP MM NOT_NAMED 1940-07-27 03:00:00 NR 19.0448 136.374 main 1393 1360 __________P___ -1 19.0448 136.374 4 10 287
1940207N17150 1940 38 WP MM NOT_NAMED 1940-07-27 06:00:00 NR 19.1911 135.897 main 1360 1327 __________P___ -1 19.1911 135.897 4 9 289
1940207N17150 1940 38 WP MM NOT_NAMED 1940-07-27 09:00:00 NR 19.3419 135.446 main 1318 1290 __________P___ -1 19.3419 135.446 4 9 290
1940207N17150 1940 38 WP MM NOT_NAMED 1940-07-27 12:00:00 NR 19.5000 135.000 main 1290 1259 __________O___ -1 19.5000 135.000 4 9 290
1940207N17150 1940 38 WP MM NOT_NAMED 1940-07-27 15:00:00 NR 19.6632 134.533 main 1255 1225 __________P___ -1 19.6632 134.533 4 9 291
1940207N17150 1940 38 WP MM NOT_NAMED 1940-07-27 18:00:00 NR 19.8343 134.064 main 1225 1192 __________P___ -1 19.8343 134.064 4 10 292
1940207N17150 1940 38 WP MM NOT_NAMED 1940-07-27 21:00:00 NR 20.0132 133.589 main 1192 1150 __________P___ -1 20.0132 133.589 4 10 292
1940207N17150 1940 38 WP MM NOT_NAMED 1940-07-28 00:00:00 NR 20.2000 133.100 main 1150 1102 __________O___ -1 20.2000 133.100 4 10 291
1940207N17150 1940 38 WP MM NOT_NAMED 1940-07-28 03:00:00 NR 20.3846 132.581 main 1102 1053 __________P___ -1 20.3846 132.581 4 11 291
1940207N17150 1940 38 WP MM NOT_NAMED 1940-07-28 06:00:00 NR 20.5774 132.050 main 1045 1000 __________P___ -1 20.5774 132.050 4 11 292
1940207N17150 1940 38 WP MM NOT_NAMED 1940-07-28 09:00:00 NR 20.7815 131.518 main 1000 955 __________P___ -1 20.7815 131.518 4 11 293
1940207N17150 1940 38 WP MM NOT_NAMED 1940-07-28 12:00:00 NR 21.0000 131.000 main 955 913 __________O___ -1 21.0000 131.000 4 11 294
1940207N17150 1940 38 WP MM NOT_NAMED 1940-07-28 15:00:00 NR 21.2234 130.478 main 913 871 __________P___ -1 21.2234 130.478 4 11 296
1940207N17150 1940 38 WP MM NOT_NAMED 1940-07-28 18:00:00 NR 21.4626 129.975 main 876 837 __________P___ -1 21.4626 129.975 4 10 299
1940207N17150 1940 38 WP MM NOT_NAMED 1940-07-28 21:00:00 NR 21.7204 129.509 main 837 786 __________P___ -1 21.7204 129.509 4 10 303
1940207N17150 1940 38 WP MM NOT_NAMED 1940-07-29 00:00:00 NR 22.0000 129.100 main 786 745 __________O___ -1 22.0000 129.100 4 9 309
1940207N17150 1940 38 WP MM NOT_NAMED 1940-07-29 03:00:00 NR 22.2865 128.763 main 745 705 __________P___ -1 22.2865 128.763 4 8 316
1940207N17150 1940 38 WP MM NOT_NAMED 1940-07-29 06:00:00 NR 22.5966 128.481 main 705 665 __________P___ -1 22.5966 128.481 4 8 323
1940207N17150 1940 38 WP MM NOT_NAMED 1940-07-29 09:00:00 NR 22.9335 128.234 main 665 634 __________P___ -1 22.9335 128.234 4 8 328
1940207N17150 1940 38 WP MM NOT_NAMED 1940-07-29 12:00:00 NR 23.3000 128.000 main 634 604 __________O___ -1 23.3000 128.000 4 9 330
1940207N17150 1940 38 WP MM NOT_NAMED 1940-07-29 15:00:00 NR 23.6836 127.766 main 604 564 __________P___ -1 23.6836 127.766 4 9 332
1940207N17150 1940 38 WP MM NOT_NAMED 1940-07-29 18:00:00 NR 24.0968 127.536 main 564 537 __________P___ -1 24.0968 127.536 4 10 333
1940207N17150 1940 38 WP MM NOT_NAMED 1940-07-29 21:00:00 NR 24.5366 127.288 main 537 503 __________P___ -1 24.5366 127.288 4 10 332
1940207N17150 1940 38 WP MM NOT_NAMED 1940-07-30 00:00:00 NR 25.0000 127.000 main 503 473 __________O___ -1 25.0000 127.000 4 11 328
1940207N17150 1940 38 WP MM NOT_NAMED 1940-07-30 03:00:00 NR 25.4788 126.635 main 465 440 __________P___ -1 25.4788 126.635 4 12 325
1940207N17150 1940 38 WP MM NOT_NAMED 1940-07-30 06:00:00 NR 25.9780 126.230 main 435 415 __________P___ -1 25.9780 126.230 4 13 324
1940207N17150 1940 38 WP MM NOT_NAMED 1940-07-30 09:00:00 NR 26.4881 125.810 main 415 400 __________P___ -1 26.4881 125.810 4 13 324
1940207N17150 1940 38 WP MM NOT_NAMED 1940-07-30 12:00:00 NR 27.0000 125.400 main 401 345 __________O___ -1 27.0000 125.400 4 12 325
1940207N17150 1940 38 WP MM NOT_NAMED 1940-07-30 15:00:00 NR 27.5065 125.020 main 345 295 __________P___ -1 27.5065 125.020 4 12 327
1940207N17150 1940 38 WP MM NOT_NAMED 1940-07-30 18:00:00 NR 28.0075 124.666 main 295 236 __________P___ -1 28.0075 124.666 4 12 329
1940207N17150 1940 38 WP MM NOT_NAMED 1940-07-30 21:00:00 NR 28.5049 124.330 main 236 195 __________P___ -1 28.5049 124.330 4 12 329
1940207N17150 1940 38 WP MM NOT_NAMED 1940-07-31 00:00:00 NR 29.0000 124.000 main 195 __________O___ -1 29.0000 124.000 4 12 330

デジタル台風データ・検索

IBTrACS Databaseについて

本データベースは、米国NOAAが公開する1842年以降の世界の熱帯低気圧のベストトラックデータアーカイブInternational Best Track Archive for Climate Stewardship (IBTrACS)を、ウェブで閲覧しやすい形式に変換したものです。

最終更新日:2021-11-26